Nearby METAR Reports

 

KBVO - Bartlesville, Oklahoma, USA
Distance from station: WNW 10mi, 16km
Updated: Fri, 16-Nov-2018 6:53pm CST
Clear
Clear
 Wind from calm
Wind: Calm
Temperature: 39°F , 4°C
Dew Point: 34°F , 1°C
Humidity: 81%
Barometer: 30.01 inHg , 1016.3 hPa
Clouds: Clear
Visibility: 10 miles , 16 km
2018/11/17 00:53 KBVO 170053Z AUTO 00000KT 10SM CLR 04/01 A3001 RMK AO2 SLP165 T00390011
KCFV - Coffeyville, Kansas, USA
Distance from station: NNE 31mi, 49km
Updated: Fri, 16-Nov-2018 6:52pm CST
Clear
Clear
 Wind from SSE
Wind: SSE 5 mph , 7 km/h
Temperature: 45°F , 7°C
Wind Chill: 42°F , 6°C
Dew Point: 36°F , 2°C
Humidity: 71%
Barometer: 30.00 inHg , 1015.9 hPa
Clouds: Clear
Visibility: 10 miles , 16 km
2018/11/17 00:52 KCFV 170052Z AUTO 15004KT 10SM CLR 07/02 A3000 RMK AO2 SLP162 T00720022
 
KIDP - Independence, Kansas, USA
Distance from station: N 32mi, 52km
Updated: Fri, 16-Nov-2018 6:50pm CST
Clear
Clear
 Wind from S
Wind: S 5 mph , 7 km/h
Temperature: 50°F , 10°C
Wind Chill: 48°F , 9°C
Dew Point: 32°F , 0°C
Humidity: 50%
Barometer: 30.00 inHg , 1015.9 hPa
Clouds: Clear
Visibility: 10 miles , 16 km
2018/11/17 00:50 KIDP 170050Z AUTO 18004KT 10SM CLR 10/00 A3000 RMK AO2 T00980003
KGCM - Claremore, Oklahoma, USA
Distance from station: SE 35mi, 56km
Updated: Fri, 16-Nov-2018 7:15pm CST
Clear
Clear
 Wind from S
Wind: S 6 mph , 9 km/h
Temperature: 50°F , 10°C
Wind Chill: 48°F , 9°C
Dew Point: 36°F , 2°C
Humidity: 58%
Barometer: 30.03 inHg , 1016.9 hPa
Clouds: Clear
Visibility: 10 miles , 16 km
2018/11/17 01:15 KGCM 170115Z AUTO 17005KT 10SM CLR 10/02 A3003 RMK AO2 TSNO
 
KTUL - Tulsa, Oklahoma, USA
Distance from station: S 35mi, 56km
Updated: Fri, 16-Nov-2018 6:53pm CST
Few Clouds
Few Clouds
 Wind from SE
Wind: SE 6 mph , 9 km/h
Temperature: 55°F , 13°C
Dew Point: 37°F , 3°C
Humidity: 51%
Barometer: 30.00 inHg , 1015.9 hPa
Clouds: Few Clouds
Visibility: 10 miles , 16 km
Cloud details: Few Clouds 25000 ft
2018/11/17 00:53 KTUL 170053Z 14005KT 10SM FEW250 13/03 A3000 RMK AO2 SLP160 T01280028
KRVS - Tulsa, Oklahoma, USA
Distance from station: S 46mi, 74km
Updated: Fri, 16-Nov-2018 6:53pm CST
Clear
Clear
 Wind from calm
Wind: Calm
Temperature: 50°F , 10°C
Dew Point: 37°F , 3°C
Humidity: 62%
Barometer: 30.01 inHg , 1016.3 hPa
Clouds: Clear
Visibility: 10 miles , 16 km
2018/11/17 00:53 KRVS 170053Z 00000KT 10SM CLR 10/03 A3001 RMK AO2 SLP169 T01000033
 
KPPF - Parsons, Kansas, USA
Distance from station: NNE 48mi, 76km
Updated: Fri, 16-Nov-2018 6:52pm CST
Clear
Clear
 Wind from ESE
Wind: ESE 3 mph , 6 km/h
Temperature: 39°F , 4°C
Dew Point: 34°F , 1°C
Humidity: 81%
Barometer: 30.00 inHg , 1015.9 hPa
Clouds: Clear
Visibility: 9 miles , 14 km
2018/11/17 00:52 KPPF 170052Z AUTO 12003KT 9SM CLR 04/01 A3000 RMK AO2 SLP166 T00440011
KGMJ - Grove, Oklahoma, USA
Distance from station: E 63mi, 101km
Updated: Fri, 16-Nov-2018 7:15pm CST
Clear
Clear
 Wind from S
Wind: S 5 mph , 7 km/h
Temperature: 52°F , 11°C
Dew Point: 32°F , 0°C
Humidity: 47%
Barometer: 30.03 inHg , 1016.9 hPa
Clouds: Clear
Visibility: 10 miles , 16 km
2018/11/17 01:15 KGMJ 170115Z AUTO 17004KT 10SM CLR 11/00 A3003 RMK AO2
 
KPNC - Ponca City, Oklahoma, USA
Distance from station: W 69mi, 111km
Updated: Fri, 16-Nov-2018 6:53pm CST
Clear
Clear
 Wind from SE
Wind: SE 8 mph , 13 km/h
Temperature: 52°F , 11°C
Dew Point: 34°F , 1°C
Humidity: 50%
Barometer: 29.97 inHg , 1014.9 hPa
Clouds: Clear
Visibility: 10 miles , 16 km
2018/11/17 00:53 KPNC 170053Z AUTO 13007KT 10SM CLR 11/01 A2997 RMK AO2 SLP152 T01060006
KCNU - Chanute, Kansas, USA
Distance from station: NNE 69mi, 112km
Updated: Fri, 16-Nov-2018 6:52pm CST
Clear
Clear
 Wind from SE
Wind: SE 7 mph , 11 km/h
Temperature: 45°F , 7°C
Wind Chill: 41°F , 5°C
Dew Point: 36°F , 2°C
Humidity: 71%
Barometer: 30.00 inHg , 1015.9 hPa
Clouds: Clear
Visibility: 10 miles , 16 km
2018/11/17 00:52 KCNU 170052Z AUTO 13006KT 10SM CLR 07/02 A3000 RMK AO2 SLP163 T00720022